AIC111 VIDP-EGLL
Flight info
| Callsign | AIC111 |
|---|---|
| Flight time | N/A |
| Altitude | 32000 |
| Route | DUDUM7C DUDUM Q2 NIKOT R462 UUD J61 LAXOM L639 RASKI N881 KIPOL L444 TOLDA M628 TULBU G652 TOKRA DCT ALROK DCT BOSOB DCT ITRUX Y511 PMA Z712 WEJ L677 CVO L617 TANSA UL617 SIT DCT TSL UM987 ATFIR N133 LOMOS DCT SAT DCT PITOK DCT SLC DCT MAKAL DCT HDO DCT KOSIX L986 SAS L980 LOGAN LOGAN2H |
| Aircraft | B77W/H-SDE1E2E3FGHIJ2J3J4J5M1RWXY/LB1D1 |
Departure
| Time | N/A |
|---|---|
| Airport | Indira Gandhi International Airport (VIDP) |
Arrival
| Time | 2026-05-04 11:39 |
|---|---|
| Airport | London Heathrow Airport (EGLL) |
| Time | Latitude | Longitude | Altitude | Speed | Heading |
|---|---|---|---|---|---|
| 2026-05-04 09:57 | 50.15448 | 16.18327 | 36022 ft | 462 kts | 302° |
| 2026-05-04 09:57 | 50.17285 | 16.14159 | 36018 ft | 461 kts | 302° |
| 2026-05-04 09:58 | 50.20895 | 16.05955 | 36018 ft | 461 kts | 302° |
| 2026-05-04 09:58 | 50.24537 | 15.97648 | 36023 ft | 460 kts | 302° |
| 2026-05-04 10:00 | 50.38944 | 15.64538 | 36016 ft | 460 kts | 301° |
| 2026-05-04 10:04 | 50.63955 | 15.06037 | 36016 ft | 461 kts | 301° |
| 2026-05-04 10:04 | 50.67499 | 14.97642 | 36022 ft | 461 kts | 301° |
| 2026-05-04 10:05 | 50.71024 | 14.89264 | 36019 ft | 460 kts | 301° |
| 2026-05-04 10:05 | 50.74582 | 14.80781 | 36002 ft | 460 kts | 301° |
| 2026-05-04 10:06 | 50.78106 | 14.72351 | 36002 ft | 460 kts | 301° |
| 2026-05-04 10:06 | 50.81627 | 14.63901 | 36004 ft | 459 kts | 301° |
| 2026-05-04 10:08 | 50.94019 | 14.34432 | 36017 ft | 462 kts | 306° |
| 2026-05-04 10:08 | 50.98135 | 14.26588 | 36014 ft | 463 kts | 307° |
| 2026-05-04 10:09 | 51.02288 | 14.18772 | 36018 ft | 463 kts | 307° |
| 2026-05-04 10:09 | 51.06416 | 14.10925 | 36019 ft | 463 kts | 306° |
| 2026-05-04 10:10 | 51.10534 | 14.03023 | 36029 ft | 464 kts | 306° |
| 2026-05-04 10:10 | 51.14621 | 13.95143 | 36020 ft | 464 kts | 306° |
| 2026-05-04 10:11 | 51.18761 | 13.87141 | 36027 ft | 465 kts | 306° |
| 2026-05-04 10:11 | 51.22875 | 13.79165 | 36017 ft | 466 kts | 306° |
| 2026-05-04 10:12 | 51.26980 | 13.71180 | 36020 ft | 466 kts | 306° |
| 2026-05-04 10:12 | 51.31060 | 13.63225 | 36018 ft | 466 kts | 306° |
| 2026-05-04 10:13 | 51.35162 | 13.55198 | 36014 ft | 466 kts | 306° |
| 2026-05-04 10:13 | 51.39249 | 13.47174 | 36005 ft | 466 kts | 306° |
| 2026-05-04 10:14 | 51.43338 | 13.39123 | 36001 ft | 466 kts | 305° |
| 2026-05-04 10:16 | 51.59619 | 13.06810 | 35996 ft | 465 kts | 305° |
| 2026-05-04 10:16 | 51.63679 | 12.98688 | 35992 ft | 466 kts | 305° |
| 2026-05-04 10:17 | 51.67731 | 12.90557 | 35997 ft | 466 kts | 305° |
| 2026-05-04 10:19 | 51.81931 | 12.61855 | 37240 ft | 462 kts | 305° |
| 2026-05-04 10:19 | 51.83927 | 12.57795 | 37533 ft | 462 kts | 305° |
| 2026-05-04 10:19 | 51.85926 | 12.53724 | 37785 ft | 462 kts | 305° |
| 2026-05-04 10:19 | 51.87834 | 12.49554 | 37917 ft | 460 kts | 299° |
| 2026-05-04 10:20 | 51.90619 | 12.40283 | 37985 ft | 456 kts | 287° |
| 2026-05-04 10:20 | 51.92181 | 12.30413 | 37987 ft | 451 kts | 280° |
| 2026-05-04 10:21 | 51.93560 | 12.20533 | 37995 ft | 449 kts | 281° |
| 2026-05-04 10:21 | 51.95005 | 12.10622 | 37989 ft | 448 kts | 281° |
| 2026-05-04 10:22 | 51.97145 | 11.95862 | 37994 ft | 448 kts | 281° |
| 2026-05-04 10:23 | 51.98558 | 11.86013 | 38001 ft | 449 kts | 281° |
| 2026-05-04 10:25 | 52.04141 | 11.46287 | 38006 ft | 452 kts | 280° |
| 2026-05-04 10:25 | 52.05510 | 11.36390 | 38010 ft | 452 kts | 280° |
| 2026-05-04 10:26 | 52.06883 | 11.26417 | 38007 ft | 452 kts | 280° |
| 2026-05-04 10:26 | 52.08253 | 11.16438 | 38010 ft | 453 kts | 280° |
| 2026-05-04 10:27 | 52.09616 | 11.06441 | 37985 ft | 453 kts | 280° |
| 2026-05-04 10:27 | 52.10968 | 10.96449 | 37997 ft | 452 kts | 279° |
| 2026-05-04 10:28 | 52.12311 | 10.86466 | 37991 ft | 452 kts | 279° |
| 2026-05-04 10:28 | 52.13423 | 10.78157 | 37999 ft | 451 kts | 279° |
| 2026-05-04 10:29 | 52.14765 | 10.68118 | 37990 ft | 451 kts | 279° |
| 2026-05-04 10:29 | 52.16091 | 10.58149 | 37988 ft | 450 kts | 279° |
| 2026-05-04 10:30 | 52.17405 | 10.48196 | 37997 ft | 449 kts | 279° |
| 2026-05-04 10:30 | 52.18710 | 10.38229 | 37996 ft | 449 kts | 279° |
| 2026-05-04 10:31 | 52.20004 | 10.28284 | 37998 ft | 449 kts | 279° |
| 2026-05-04 10:32 | 52.24459 | 9.93432 | 37983 ft | 448 kts | 277° |
| 2026-05-04 10:33 | 52.25020 | 9.83383 | 37994 ft | 445 kts | 266° |
| 2026-05-04 10:33 | 52.24752 | 9.73298 | 37997 ft | 445 kts | 265° |
| 2026-05-04 10:34 | 52.24444 | 9.63224 | 37986 ft | 445 kts | 265° |
| 2026-05-04 10:34 | 52.24156 | 9.53140 | 37975 ft | 445 kts | 265° |
| 2026-05-04 10:35 | 52.23871 | 9.43046 | 38002 ft | 445 kts | 265° |
| 2026-05-04 10:35 | 52.23578 | 9.32939 | 37986 ft | 447 kts | 265° |
| 2026-05-04 10:36 | 52.23269 | 9.22790 | 38011 ft | 448 kts | 264° |
| 2026-05-04 10:36 | 52.22937 | 9.12670 | 37994 ft | 446 kts | 264° |
| 2026-05-04 10:37 | 52.22600 | 9.02594 | 37979 ft | 444 kts | 264° |
| 2026-05-04 10:37 | 52.22267 | 8.92543 | 37994 ft | 443 kts | 264° |
| 2026-05-04 10:39 | 52.21059 | 8.57479 | 37989 ft | 443 kts | 264° |
| 2026-05-04 10:40 | 52.20692 | 8.47366 | 37999 ft | 444 kts | 263° |
| 2026-05-04 10:40 | 52.20322 | 8.37303 | 37982 ft | 445 kts | 263° |
| 2026-05-04 10:41 | 52.19950 | 8.27236 | 37992 ft | 446 kts | 263° |
| 2026-05-04 10:41 | 52.19580 | 8.17143 | 38011 ft | 446 kts | 263° |
| 2026-05-04 10:42 | 52.19207 | 8.07037 | 37986 ft | 447 kts | 263° |
| 2026-05-04 10:42 | 52.18825 | 7.96933 | 37990 ft | 446 kts | 263° |
| 2026-05-04 10:43 | 52.18435 | 7.86856 | 38015 ft | 446 kts | 263° |
| 2026-05-04 10:45 | 52.16740 | 7.46618 | 37991 ft | 444 kts | 262° |
| 2026-05-04 10:45 | 52.16254 | 7.36601 | 37997 ft | 444 kts | 262° |
| 2026-05-04 10:46 | 52.15767 | 7.26579 | 37987 ft | 444 kts | 262° |
| 2026-05-04 10:46 | 52.15273 | 7.16535 | 37987 ft | 445 kts | 262° |
| 2026-05-04 10:47 | 52.14769 | 7.06498 | 37977 ft | 445 kts | 262° |
| 2026-05-04 10:47 | 52.14261 | 6.96464 | 37983 ft | 445 kts | 261° |
| 2026-05-04 10:49 | 52.17678 | 6.56295 | 37987 ft | 464 kts | 285° |
| 2026-05-04 10:50 | 52.19907 | 6.46453 | 37991 ft | 464 kts | 285° |
| 2026-05-04 10:52 | 52.28588 | 6.06622 | 37991 ft | 462 kts | 284° |
| 2026-05-04 10:52 | 52.30719 | 5.96734 | 37986 ft | 461 kts | 284° |
| 2026-05-04 10:54 | 52.37680 | 5.61924 | 37997 ft | 452 kts | 272° |
| 2026-05-04 10:54 | 52.37900 | 5.56863 | 38007 ft | 449 kts | 266° |
| 2026-05-04 10:56 | 52.34260 | 5.16738 | 37989 ft | 448 kts | 257° |
| 2026-05-04 10:57 | 52.33044 | 5.06781 | 37993 ft | 446 kts | 250° |
| 2026-05-04 10:57 | 52.31069 | 4.97183 | 37995 ft | 445 kts | 248° |
| 2026-05-04 10:58 | 52.29056 | 4.87617 | 37996 ft | 446 kts | 248° |
| 2026-05-04 10:58 | 52.27063 | 4.78039 | 38006 ft | 446 kts | 248° |
| 2026-05-04 10:59 | 52.25404 | 4.70051 | 37992 ft | 446 kts | 248° |
| 2026-05-04 10:59 | 52.23391 | 4.60423 | 37995 ft | 444 kts | 248° |
| 2026-05-04 11:00 | 52.21404 | 4.50962 | 37986 ft | 444 kts | 247° |
| 2026-05-04 11:02 | 52.13325 | 4.12883 | 37996 ft | 446 kts | 247° |
| 2026-05-04 11:05 | 51.96285 | 3.42107 | 38012 ft | 444 kts | 231° |
| 2026-05-04 11:06 | 51.92586 | 3.34071 | 38013 ft | 445 kts | 231° |
| 2026-05-04 11:06 | 51.88899 | 3.25992 | 38013 ft | 447 kts | 231° |
| 2026-05-04 11:08 | 51.83228 | 2.91857 | 38009 ft | 463 kts | 261° |
| 2026-05-04 11:10 | 51.80847 | 2.55708 | 38010 ft | 462 kts | 260° |
| 2026-05-04 11:12 | 51.78283 | 2.19175 | 33723 ft | 470 kts | 259° |
| 2026-05-04 11:12 | 51.77963 | 2.13920 | 32678 ft | 471 kts | 259° |
| 2026-05-04 11:12 | 51.77663 | 2.08653 | 31678 ft | 472 kts | 259° |
| 2026-05-04 11:12 | 51.77364 | 2.03367 | 30728 ft | 472 kts | 259° |
| 2026-05-04 11:13 | 51.77064 | 1.98122 | 30027 ft | 466 kts | 259° |
| 2026-05-04 11:13 | 51.76760 | 1.92942 | 29221 ft | 461 kts | 259° |
| 2026-05-04 11:13 | 51.76453 | 1.87826 | 28505 ft | 456 kts | 259° |
| 2026-05-04 11:13 | 51.76144 | 1.82768 | 27830 ft | 450 kts | 259° |
| 2026-05-04 11:14 | 51.75837 | 1.77779 | 27175 ft | 445 kts | 259° |
| 2026-05-04 11:14 | 51.75529 | 1.72828 | 26508 ft | 441 kts | 259° |
| 2026-05-04 11:14 | 51.75224 | 1.67926 | 25859 ft | 436 kts | 259° |
| 2026-05-04 11:16 | 51.73082 | 1.34772 | 21342 ft | 412 kts | 261° |
| 2026-05-04 11:16 | 51.72778 | 1.30183 | 20733 ft | 409 kts | 261° |
| 2026-05-04 11:16 | 51.72475 | 1.25649 | 20132 ft | 405 kts | 261° |
| 2026-05-04 11:17 | 51.72174 | 1.21158 | 19541 ft | 403 kts | 261° |
| 2026-05-04 11:17 | 51.71868 | 1.16625 | 18943 ft | 400 kts | 261° |
| 2026-05-04 11:19 | 51.69772 | 0.86160 | 14987 ft | 376 kts | 262° |
| 2026-05-04 11:19 | 51.69482 | 0.82011 | 14537 ft | 372 kts | 262° |
| 2026-05-04 11:19 | 51.69191 | 0.77865 | 14079 ft | 370 kts | 262° |
| 2026-05-04 11:19 | 51.68907 | 0.73767 | 13599 ft | 367 kts | 263° |
| 2026-05-04 11:20 | 51.68920 | 0.69681 | 13300 ft | 362 kts | 274° |
| 2026-05-04 11:20 | 51.69419 | 0.65741 | 13314 ft | 361 kts | 283° |
| 2026-05-04 11:20 | 51.70134 | 0.61862 | 13278 ft | 356 kts | 284° |
| 2026-05-04 11:20 | 51.70839 | 0.58034 | 13204 ft | 345 kts | 284° |
| 2026-05-04 11:22 | 51.79709 | 0.45282 | 12074 ft | 299 kts | 34° |
| 2026-05-04 11:22 | 51.81156 | 0.47662 | 11620 ft | 300 kts | 60° |
| 2026-05-04 11:23 | 51.81818 | 0.50788 | 11323 ft | 293 kts | 87° |
| 2026-05-04 11:23 | 51.81586 | 0.54012 | 11014 ft | 286 kts | 114° |
| 2026-05-04 11:24 | 51.73365 | 0.51966 | 9657 ft | 267 kts | 240° |
| 2026-05-04 11:25 | 51.72506 | 0.49329 | 9451 ft | 266 kts | 244° |
| 2026-05-04 11:25 | 51.71730 | 0.46584 | 9256 ft | 265 kts | 246° |
| 2026-05-04 11:25 | 51.71036 | 0.43873 | 9034 ft | 264 kts | 248° |
| 2026-05-04 11:26 | 51.69725 | 0.38315 | 8664 ft | 261 kts | 249° |
| 2026-05-04 11:27 | 51.65502 | 0.19256 | 7325 ft | 253 kts | 250° |
| 2026-05-04 11:28 | 51.64913 | 0.16586 | 7156 ft | 247 kts | 250° |
| 2026-05-04 11:28 | 51.64550 | 0.13976 | 7055 ft | 235 kts | 267° |
| 2026-05-04 11:28 | 51.64585 | 0.11320 | 7067 ft | 239 kts | 271° |
| 2026-05-04 11:28 | 51.64686 | 0.08650 | 7043 ft | 238 kts | 272° |
| 2026-05-04 11:29 | 51.64785 | 0.06009 | 7036 ft | 235 kts | 272° |
| 2026-05-04 11:29 | 51.64875 | 0.03386 | 7031 ft | 232 kts | 271° |
| 2026-05-04 11:29 | 51.64957 | 0.00770 | 7028 ft | 228 kts | 271° |
| 2026-05-04 11:29 | 51.65030 | -0.01802 | 7009 ft | 234 kts | 271° |
| 2026-05-04 11:31 | 51.63384 | -0.19274 | 6655 ft | 237 kts | 205° |
| 2026-05-04 11:33 | 51.54386 | -0.14963 | 4832 ft | 226 kts | 127° |
| 2026-05-04 11:33 | 51.53399 | -0.13027 | 4448 ft | 222 kts | 141° |
| 2026-05-04 11:33 | 51.52001 | -0.12115 | 4132 ft | 219 kts | 177° |
| 2026-05-04 11:34 | 51.50517 | -0.12641 | 3818 ft | 217 kts | 207° |
| 2026-05-04 11:34 | 51.49290 | -0.13941 | 3536 ft | 212 kts | 217° |
| 2026-05-04 11:34 | 51.48289 | -0.15613 | 3159 ft | 206 kts | 244° |
| 2026-05-04 11:34 | 51.47989 | -0.17780 | 3028 ft | 188 kts | 264° |
| 2026-05-04 11:35 | 51.47874 | -0.19883 | 2988 ft | 191 kts | 267° |
| 2026-05-04 11:35 | 51.47835 | -0.22012 | 2718 ft | 188 kts | 270° |
| 2026-05-04 11:35 | 51.47825 | -0.24059 | 2471 ft | 174 kts | 270° |
| 2026-05-04 11:35 | 51.47819 | -0.25946 | 2248 ft | 165 kts | 270° |
| 2026-05-04 11:36 | 51.47814 | -0.27807 | 2039 ft | 166 kts | 271° |
| 2026-05-04 11:36 | 51.47809 | -0.29655 | 1841 ft | 170 kts | 271° |
| 2026-05-04 11:36 | 51.47803 | -0.31540 | 1596 ft | 165 kts | 271° |
| 2026-05-04 11:36 | 51.47797 | -0.33333 | 1384 ft | 154 kts | 271° |
| 2026-05-04 11:37 | 51.47792 | -0.35097 | 1202 ft | 159 kts | 271° |
| 2026-05-04 11:37 | 51.47781 | -0.36878 | 987 ft | 164 kts | 271° |
| 2026-05-04 11:37 | 51.47776 | -0.38653 | 743 ft | 154 kts | 273° |
| 2026-05-04 11:37 | 51.47776 | -0.40363 | 528 ft | 156 kts | 272° |
| 2026-05-04 11:38 | 51.47769 | -0.42116 | 311 ft | 160 kts | 272° |
| 2026-05-04 11:38 | 51.47762 | -0.43932 | 110 ft | 154 kts | 271° |
| 2026-05-04 11:38 | 51.47760 | -0.45471 | 95 ft | 124 kts | 272° |
| 2026-05-04 11:38 | 51.47755 | -0.46606 | 96 ft | 76 kts | 269° |
| 2026-05-04 11:39 | 51.47752 | -0.47131 | 91 ft | 19 kts | 269° |
| 2026-05-04 11:39 | 51.47743 | -0.47320 | 91 ft | 12 kts | 246° |
| 2026-05-04 11:40 | 51.47531 | -0.47347 | 93 ft | 6 kts | 153° |
| 2026-05-04 11:41 | 51.47505 | -0.47293 | 94 ft | 9 kts | 111° |
| 2026-05-04 11:41 | 51.47495 | -0.47165 | 94 ft | 12 kts | 91° |
| 2026-05-04 11:41 | 51.47494 | -0.47027 | 93 ft | 12 kts | 90° |
| 2026-05-04 11:41 | 51.47495 | -0.46886 | 93 ft | 12 kts | 89° |
| 2026-05-04 11:42 | 51.47506 | -0.46746 | 92 ft | 12 kts | 76° |
| 2026-05-04 11:42 | 51.47515 | -0.46618 | 91 ft | 12 kts | 88° |
| 2026-05-04 11:42 | 51.47515 | -0.46539 | 93 ft | 12 kts | 89° |
| 2026-05-04 11:42 | 51.47516 | -0.46461 | 90 ft | 12 kts | 89° |
| 2026-05-04 11:43 | 51.47517 | -0.46387 | 93 ft | 13 kts | 89° |
| 2026-05-04 11:43 | 51.47517 | -0.46303 | 93 ft | 15 kts | 89° |
| 2026-05-04 11:43 | 51.47518 | -0.46188 | 93 ft | 18 kts | 89° |
| 2026-05-04 11:43 | 51.47519 | -0.46059 | 93 ft | 20 kts | 89° |
| 2026-05-04 11:44 | 51.47520 | -0.45920 | 93 ft | 20 kts | 89° |
| 2026-05-04 11:44 | 51.47518 | -0.45825 | 91 ft | 20 kts | 93° |
| 2026-05-04 11:44 | 51.47513 | -0.45731 | 94 ft | 20 kts | 95° |
| 2026-05-04 11:44 | 51.47509 | -0.45643 | 94 ft | 20 kts | 92° |
| 2026-05-04 11:45 | 51.47510 | -0.45541 | 93 ft | 20 kts | 90° |
| 2026-05-04 11:45 | 51.47510 | -0.45446 | 93 ft | 20 kts | 90° |
| 2026-05-04 11:45 | 51.47511 | -0.45344 | 93 ft | 20 kts | 90° |
| 2026-05-04 11:45 | 51.47511 | -0.45235 | 94 ft | 20 kts | 90° |
| 2026-05-04 11:46 | 51.47511 | -0.45132 | 94 ft | 20 kts | 89° |
| 2026-05-04 11:46 | 51.47512 | -0.45045 | 94 ft | 20 kts | 89° |
| 2026-05-04 11:46 | 51.47512 | -0.44965 | 95 ft | 20 kts | 89° |
| 2026-05-04 11:46 | 51.47513 | -0.44891 | 94 ft | 20 kts | 89° |
| 2026-05-04 11:47 | 51.47514 | -0.44811 | 95 ft | 20 kts | 89° |
| 2026-05-04 11:47 | 51.47514 | -0.44731 | 93 ft | 20 kts | 89° |
| 2026-05-04 11:47 | 51.47514 | -0.44660 | 94 ft | 3 kts | 97° |
| 2026-05-04 11:47 | 51.47513 | -0.44652 | 94 ft | 4 kts | 99° |
| 2026-05-04 11:48 | 51.47507 | -0.44624 | 94 ft | 9 kts | 110° |
| 2026-05-04 11:48 | 51.47488 | -0.44580 | 95 ft | 14 kts | 134° |
| 2026-05-04 11:48 | 51.47448 | -0.44558 | 92 ft | 17 kts | 184° |
| 2026-05-04 11:48 | 51.47437 | -0.44561 | 92 ft | 0 kts | 188° |
| 2026-05-04 11:49 | 51.47429 | -0.44561 | 92 ft | 3 kts | 180° |
| 2026-05-04 11:49 | 51.47418 | -0.44560 | 92 ft | 5 kts | 178° |
| 2026-05-04 11:49 | 51.47405 | -0.44559 | 91 ft | 6 kts | 178° |
| 2026-05-04 11:49 | 51.47389 | -0.44558 | 91 ft | 8 kts | 178° |
| 2026-05-04 11:50 | 51.47367 | -0.44557 | 90 ft | 9 kts | 178° |
| 2026-05-04 11:50 | 51.47342 | -0.44556 | 90 ft | 11 kts | 178° |
| 2026-05-04 11:50 | 51.47310 | -0.44555 | 92 ft | 12 kts | 178° |
| 2026-05-04 11:50 | 51.47278 | -0.44547 | 93 ft | 13 kts | 160° |
| 2026-05-04 11:51 | 51.47258 | -0.44509 | 93 ft | 13 kts | 112° |
| 2026-05-04 11:51 | 51.47260 | -0.44467 | 92 ft | 13 kts | 71° |
| 2026-05-04 11:51 | 51.47262 | -0.44458 | 91 ft | 0 kts | 68° |
| 2026-05-04 11:55 | 51.47265 | -0.44416 | 93 ft | 0 kts | 88° |